Terminal Aerodrome Forecast
Issued by NWS Jacksonville, FL

Home | Current Version | Previous Version | Text Only | Print | Product List | Glossary On
Versions: 1 2 3 4 5 6 7 8 9 10 11 12 13 14 15 16 17 18
000
FTUS42 KJAX 231300 AAA
TAFSSI
TAF AMD
KSSI 231359Z 2314/2412 02010KT P6SM BKN025
     FM231600 05014G21KT P6SM VCSH BKN020 OVC040
     FM240200 03012G18KT P6SM VCSH BKN020 OVC040=

USA.gov is the U.S. government's official web portal to all federal, state and local government web resources and services.